Time;durP1;ratioP1;P1;durP2;ratioP2;P2;SDS_P1;SDS_P2;PMS_P1;PMS_P2;Temp;Humidity;BMP_temperature;BMP_pressure;BME280_temperature;BME280_humidity;BME280_pressure;Samples;Min_cycle;Max_cycle;Signal;HPM_P1;HPM_P2
2022/05/17 00:04:46;;;;;;;6.33;2.50;;;;;;;14.26;49.53;100768.14;3732786;78;98823;-86
2022/05/17 00:09:47;;;;;;;6.93;2.50;;;;;;;14.19;49.71;100771.71;3685929;79;30657;-85
2022/05/17 00:14:52;;;;;;;8.18;2.75;;;;;;;14.16;49.80;100774.41;3701575;78;99566;-85
2022/05/17 00:19:55;;;;;;;8.28;2.37;;;;;;;14.07;50.09;100769.26;3741386;78;98597;-86
2022/05/17 00:24:57;;;;;;;11.60;3.25;;;;;;;13.96;50.31;100764.90;3729623;77;98846;-85
2022/05/17 00:29:59;;;;;;;7.50;2.67;;;;;;;13.89;50.57;100760.13;3779796;76;99106;-85
2022/05/17 00:35:04;;;;;;;8.45;3.10;;;;;;;13.84;50.69;100753.59;3778752;77;98745;-86
2022/05/17 00:40:07;;;;;;;8.58;2.83;;;;;;;13.74;51.13;100753.56;3783672;78;98713;-85
2022/05/17 00:45:14;;;;;;;6.72;2.75;;;;;;;13.68;51.27;100753.75;3777102;78;99478;-85
2022/05/17 00:50:24;;;;;;;7.80;2.77;;;;;;;13.62;51.94;100755.31;3771617;77;98762;-84
2022/05/17 00:55:42;;;;;;;9.10;3.10;;;;;;;13.61;52.15;100762.80;3728758;77;98596;-85
2022/05/17 01:01:12;;;;;;;8.08;3.33;;;;;;;13.58;53.33;100754.49;3732836;78;98915;-86
2022/05/17 01:06:17;;;;;;;9.63;4.75;;;;;;;13.51;54.26;100743.41;3776712;77;98826;-83
2022/05/17 01:11:18;;;;;;;10.70;3.97;;;;;;;13.43;55.32;100748.69;3754322;78;98736;-84
2022/05/17 01:16:19;;;;;;;9.30;3.70;;;;;;;13.39;56.18;100745.11;3780604;76;98914;-86
2022/05/17 01:21:23;;;;;;;10.20;3.55;;;;;;;13.36;56.39;100739.77;3740422;78;98469;-85
2022/05/17 01:26:33;;;;;;;17.42;3.95;;;;;;;13.36;56.31;100734.23;3699282;78;98906;-85
2022/05/17 01:31:38;;;;;;;8.20;3.27;;;;;;;13.36;56.63;100732.85;3693970;78;99237;-86
2022/05/17 01:36:41;;;;;;;10.70;3.75;;;;;;;13.37;56.10;100730.31;3723590;78;98100;-85
2022/05/17 01:41:42;;;;;;;9.85;3.42;;;;;;;13.38;55.90;100748.48;3699229;77;99330;-87
2022/05/17 01:46:43;;;;;;;8.87;3.40;;;;;;;13.35;56.28;100752.61;3674018;78;99151;-89
2022/05/17 01:51:45;;;;;;;9.28;4.12;;;;;;;13.32;56.56;100746.47;3707834;78;98790;-86
2022/05/17 01:56:46;;;;;;;10.77;4.23;;;;;;;13.28;56.95;100741.50;3711579;78;98355;-86
2022/05/17 02:01:49;;;;;;;14.87;4.20;;;;;;;13.21;58.10;100733.19;3741631;77;99099;-86
2022/05/17 02:06:50;;;;;;;10.68;3.52;;;;;;;13.15;58.74;100738.87;3733681;77;99035;-84
2022/05/17 02:11:51;;;;;;;10.90;4.30;;;;;;;13.09;58.76;100733.52;3744864;77;99055;-87
2022/05/17 02:16:53;;;;;;;9.90;4.40;;;;;;;13.07;59.06;100744.95;3727388;77;99059;-86
2022/05/17 02:21:54;;;;;;;10.10;4.45;;;;;;;13.04;59.67;100755.37;3751539;77;99052;-84
2022/05/17 02:26:56;;;;;;;10.88;4.40;;;;;;;12.98;60.03;100752.00;3781136;77;33112;-87
2022/05/17 02:31:59;;;;;;;12.20;4.95;;;;;;;12.94;59.59;100747.81;3764390;77;99677;-86
2022/05/17 02:37:00;;;;;;;10.28;3.95;;;;;;;12.93;59.85;100755.87;3754793;77;99084;-87
2022/05/17 02:42:03;;;;;;;10.20;3.90;;;;;;;12.89;60.16;100757.03;3771699;76;99378;-85
2022/05/17 02:47:05;;;;;;;13.93;4.03;;;;;;;12.87;60.42;100762.16;3774770;77;98932;-86
2022/05/17 02:52:08;;;;;;;11.85;4.35;;;;;;;12.86;60.01;100766.10;3740056;78;99132;-86
2022/05/17 02:57:13;;;;;;;10.93;3.85;;;;;;;12.81;60.47;100771.98;3775601;76;32467;-85
2022/05/17 03:02:14;;;;;;;13.43;4.15;;;;;;;12.72;61.44;100774.27;3764129;78;98922;-84
2022/05/17 03:07:16;;;;;;;13.77;4.83;;;;;;;12.60;62.08;100772.58;3790743;77;99328;-83
2022/05/17 03:12:17;;;;;;;10.60;3.63;;;;;;;12.51;62.11;100772.13;3768314;77;99122;-84
2022/05/17 03:17:19;;;;;;;11.67;4.10;;;;;;;12.45;62.01;100782.52;3789157;77;99367;-85
2022/05/17 03:22:20;;;;;;;9.20;3.72;;;;;;;12.40;62.68;100782.28;3734821;77;99060;-84
2022/05/17 03:27:21;;;;;;;10.20;3.43;;;;;;;12.35;62.50;100784.02;3734543;78;30671;-85
2022/05/17 03:32:22;;;;;;;8.10;3.57;;;;;;;12.33;62.51;100785.56;3709556;78;99222;-86
2022/05/17 03:37:24;;;;;;;10.10;3.10;;;;;;;12.32;62.49;100793.64;3713149;78;98803;-84
2022/05/17 03:42:25;;;;;;;8.13;3.03;;;;;;;12.31;62.04;100790.08;3724222;78;98949;-86
2022/05/17 03:47:26;;;;;;;7.07;2.83;;;;;;;12.30;62.03;100802.30;3739813;78;98733;-87
2022/05/17 03:52:30;;;;;;;9.77;3.23;;;;;;;12.29;62.75;100804.05;3750872;78;99088;-86
2022/05/17 03:57:32;;;;;;;12.70;3.37;;;;;;;12.26;62.38;100799.30;3735685;78;32950;-84
2022/05/17 04:02:37;;;;;;;7.60;3.00;;;;;;;12.27;62.13;100797.52;3722007;77;99183;-84
2022/05/17 04:07:38;;;;;;;7.08;3.20;;;;;;;12.28;61.83;100794.99;3726175;78;98774;-85
2022/05/17 04:12:39;;;;;;;10.53;3.17;;;;;;;12.30;62.17;100807.81;3709659;78;98889;-86
2022/05/17 04:17:41;;;;;;;9.73;2.50;;;;;;;12.32;62.02;100812.36;3720231;78;99061;-85
2022/05/17 04:22:48;;;;;;;9.03;3.60;;;;;;;12.34;61.93;100808.66;3759647;77;98998;-86
2022/05/17 04:27:50;;;;;;;7.83;2.92;;;;;;;12.39;61.80;100808.31;3790769;77;32512;-84
2022/05/17 04:32:52;;;;;;;8.65;2.67;;;;;;;12.45;61.77;100809.55;3729862;76;98693;-86
2022/05/17 04:37:53;;;;;;;6.90;3.10;;;;;;;12.49;61.74;100811.73;3685125;78;98812;-85
2022/05/17 04:42:57;;;;;;;9.20;3.03;;;;;;;12.54;61.55;100818.89;3716118;77;98799;-84
2022/05/17 04:47:58;;;;;;;9.78;2.92;;;;;;;12.62;61.25;100817.77;3717875;77;98893;-85
2022/05/17 04:53:00;;;;;;;9.95;3.05;;;;;;;12.69;61.10;100810.34;3742133;76;99519;-85
2022/05/17 04:58:01;;;;;;;12.47;4.20;;;;;;;12.76;61.23;100814.54;3712840;78;98711;-84
2022/05/17 05:03:02;;;;;;;9.17;2.70;;;;;;;12.81;61.37;100818.94;3710846;78;99718;-84
2022/05/17 05:22:19;;;;;;;10.43;3.70;;;;;;;13.47;60.40;100826.32;3763359;76;29138;-85
2022/05/17 05:27:20;;;;;;;8.50;3.07;;;;;;;13.36;60.14;100831.00;3565577;80;97977;-84
2022/05/17 05:32:21;;;;;;;11.93;3.40;;;;;;;13.35;60.29;100829.41;3545770;81;99401;-85
2022/05/17 05:37:23;;;;;;;9.13;3.23;;;;;;;13.30;60.31;100834.53;3558774;81;99266;-84
2022/05/17 05:42:24;;;;;;;6.90;2.97;;;;;;;13.32;60.46;100837.69;3568846;80;98855;-83
2022/05/17 05:47:25;;;;;;;7.30;2.87;;;;;;;13.41;60.31;100832.02;3641086;80;97963;-85
2022/05/17 05:52:27;;;;;;;6.23;2.73;;;;;;;13.47;60.31;100826.93;3623483;80;98657;-82
2022/05/17 05:57:28;;;;;;;9.93;3.40;;;;;;;13.58;60.18;100840.23;3608505;80;98952;-84
2022/05/17 06:02:52;;;;;;;12.07;3.50;;;;;;;13.63;60.04;100836.48;3607984;79;99121;-83
2022/05/17 06:07:53;;;;;;;11.95;3.35;;;;;;;13.70;60.02;100837.13;3427258;84;99525;-82
2022/05/17 06:12:54;;;;;;;9.75;2.92;;;;;;;13.73;60.07;100842.66;3434986;83;98960;-82
2022/05/17 06:18:03;;;;;;;7.85;2.98;;;;;;;13.84;59.98;100850.42;3416284;85;99199;-83
2022/05/17 06:23:06;;;;;;;10.18;3.58;;;;;;;13.95;59.88;100844.34;3441265;83;99509;-81
2022/05/17 06:28:07;;;;;;;9.20;3.12;;;;;;;14.13;59.50;100839.69;3434646;84;32359;-82
2022/05/17 06:33:13;;;;;;;7.83;2.83;;;;;;;14.34;59.09;100843.91;3408876;84;98663;-85
2022/05/17 06:38:18;;;;;;;9.38;2.62;;;;;;;14.54;59.38;100845.14;3437122;85;98842;-84
2022/05/17 06:43:19;;;;;;;14.45;3.98;;;;;;;14.72;57.28;100850.71;3494369;82;98951;-83
2022/05/17 06:48:20;;;;;;;9.23;3.20;;;;;;;14.97;57.39;100848.73;3489286;81;99000;-81
2022/05/17 06:53:21;;;;;;;8.30;2.70;;;;;;;15.14;56.66;100852.89;3480368;82;98949;-82
2022/05/17 06:58:22;;;;;;;9.45;3.08;;;;;;;15.38;55.54;100854.09;3434571;84;30748;-85
2022/05/17 07:03:23;;;;;;;9.28;3.08;;;;;;;15.60;53.90;100861.94;3419018;83;99022;-84
2022/05/17 07:08:24;;;;;;;8.28;2.85;;;;;;;15.63;53.36;100870.87;3372920;86;98944;-84
2022/05/17 07:13:25;;;;;;;7.07;2.60;;;;;;;15.77;52.71;100869.45;3417280;84;98896;-81
2022/05/17 07:18:29;;;;;;;8.20;2.70;;;;;;;15.92;53.28;100882.69;3452174;84;98979;-84
2022/05/17 07:23:30;;;;;;;6.12;1.95;;;;;;;16.08;51.84;100892.75;3437719;84;98871;-82
2022/05/17 07:28:31;;;;;;;5.60;2.25;;;;;;;16.27;52.92;100904.75;3437791;84;29896;-82
2022/05/17 07:33:32;;;;;;;7.60;2.40;;;;;;;16.37;52.43;100898.36;3422763;84;99005;-83
2022/05/17 07:38:35;;;;;;;5.77;2.03;;;;;;;16.55;51.90;100909.61;3420437;84;98775;-80
2022/05/17 07:43:36;;;;;;;6.85;1.98;;;;;;;16.45;51.23;100911.84;3402785;85;99051;-83
2022/05/17 07:48:37;;;;;;;9.48;2.20;;;;;;;16.45;50.95;100927.12;3431267;83;99200;-84
2022/05/17 07:53:38;;;;;;;10.18;2.42;;;;;;;16.36;51.01;100930.12;3360738;85;99128;-84
2022/05/17 07:58:39;;;;;;;4.67;1.70;;;;;;;16.47;50.66;100930.27;3439383;84;31628;-82
2022/05/17 08:03:40;;;;;;;8.80;2.22;;;;;;;16.44;49.79;100937.24;3434368;84;98992;-81
2022/05/17 08:08:42;;;;;;;6.60;2.12;;;;;;;16.60;50.40;100937.56;3383011;85;98762;-82
2022/05/17 08:13:43;;;;;;;6.55;1.92;;;;;;;16.76;50.72;100948.98;3401325;84;98845;-82
2022/05/17 08:18:44;;;;;;;6.03;2.20;;;;;;;16.84;50.34;100948.54;3438863;85;99140;-82
2022/05/17 08:23:45;;;;;;;8.20;2.17;;;;;;;16.98;49.93;100950.44;3442801;84;99302;-82
2022/05/17 08:28:47;;;;;;;5.30;2.12;;;;;;;17.10;49.88;100969.42;3459215;83;30439;-81
2022/05/17 08:33:50;;;;;;;9.00;1.72;;;;;;;17.24;50.75;100960.41;3429016;84;99176;-82
2022/05/17 08:38:51;;;;;;;8.68;1.72;;;;;;;17.33;49.37;100961.33;3401190;84;98782;-83
2022/05/17 08:44:06;;;;;;;4.10;1.30;;;;;;;17.26;47.36;100962.75;3460723;82;98766;-82
2022/05/17 08:49:28;;;;;;;7.55;2.10;;;;;;;17.34;48.52;100965.69;3471567;83;99282;-82
2022/05/17 08:54:37;;;;;;;9.55;2.12;;;;;;;17.62;48.53;100971.84;3444977;83;99145;-81
2022/05/17 08:59:38;;;;;;;6.37;2.12;;;;;;;17.92;48.00;100976.11;3445079;83;99428;-82
2022/05/17 09:04:50;;;;;;;7.50;1.80;;;;;;;18.03;47.56;100978.80;3419479;84;98484;-84
2022/05/17 09:10:09;;;;;;;7.42;2.00;;;;;;;18.25;46.99;100984.34;3430650;84;98506;-82
2022/05/17 09:15:15;;;;;;;4.95;1.55;;;;;;;18.40;45.08;100984.36;3450074;83;98912;-83
2022/05/17 09:20:21;;;;;;;7.15;2.20;;;;;;;18.53;46.06;100986.19;3461026;84;99344;-83
2022/05/17 09:25:27;;;;;;;5.47;1.65;;;;;;;18.52;45.89;100990.19;3470205;83;98950;-82
2022/05/17 09:30:34;;;;;;;6.30;1.77;;;;;;;18.59;45.56;100981.73;3471108;83;98922;-82
2022/05/17 09:35:55;;;;;;;21.12;4.85;;;;;;;18.66;44.98;100983.05;3459242;83;98859;-80
2022/05/17 09:40:58;;;;;;;52.97;6.87;;;;;;;18.98;45.18;100984.01;3458170;83;98833;-79
2022/05/17 09:46:10;;;;;;;9.70;2.00;;;;;;;18.87;45.29;100973.61;3465384;83;98894;-80
2022/05/17 09:56:36;;;;;;;4.37;1.42;;;;;;;19.33;43.99;100975.92;3477709;83;98753;-83
2022/05/17 10:01:39;;;;;;;8.75;1.57;;;;;;;19.42;43.06;100978.17;3465298;83;98851;-81
2022/05/17 10:06:45;;;;;;;5.17;1.90;;;;;;;19.61;43.10;100981.66;3460422;83;99130;-81
2022/05/17 10:12:09;;;;;;;5.28;1.60;;;;;;;19.89;42.70;100985.35;3472104;83;99167;-82
2022/05/17 10:17:30;;;;;;;5.70;1.55;;;;;;;20.14;41.41;100980.11;3478363;83;99368;-81
2022/05/17 10:23:00;;;;;;;4.20;1.60;;;;;;;20.59;41.08;100980.58;3491293;83;98743;-81
2022/05/17 10:28:09;;;;;;;4.53;1.30;;;;;;;21.28;40.58;100977.46;3435198;82;98687;-82
2022/05/17 10:33:28;;;;;;;4.90;1.60;;;;;;;22.48;39.59;100973.72;3415177;83;99068;-81
2022/05/17 10:38:39;;;;;;;7.83;1.47;;;;;;;23.28;38.68;100971.25;3428784;85;98755;-82
2022/05/17 10:43:44;;;;;;;6.47;1.52;;;;;;;24.15;38.40;100973.73;3475251;83;98866;-82
2022/05/17 10:49:24;;;;;;;5.35;1.40;;;;;;;24.28;36.97;100972.44;3451099;83;98945;-81
2022/05/17 10:54:55;;;;;;;2.83;1.15;;;;;;;24.47;36.24;100973.36;3456076;83;99284;-81
2022/05/17 11:00:18;;;;;;;5.15;1.27;;;;;;;25.26;36.79;100974.32;3473926;83;99298;-81
2022/05/17 11:05:39;;;;;;;4.40;1.30;;;;;;;25.90;35.26;100974.64;3453110;83;99255;-80
2022/05/17 11:11:01;;;;;;;4.55;1.75;;;;;;;26.27;35.18;100973.40;3472637;83;98790;-81
2022/05/17 11:16:16;;;;;;;2.90;1.30;;;;;;;26.34;33.77;100968.87;3460478;83;98725;-80
2022/05/17 11:21:28;;;;;;;2.35;1.00;;;;;;;27.02;34.71;100980.05;3420519;84;99109;-81
2022/05/17 11:26:46;;;;;;;3.50;1.20;;;;;;;27.54;31.32;100980.93;3483169;83;99200;-82
2022/05/17 11:31:58;;;;;;;7.40;1.80;;;;;;;27.33;31.42;100976.32;3461058;83;99245;-81
2022/05/17 11:37:09;;;;;;;4.65;1.45;;;;;;;26.92;31.20;100982.10;3476747;83;98926;-81
2022/05/17 11:42:34;;;;;;;7.03;1.45;;;;;;;26.89;31.59;100980.86;3450483;83;98874;-81
2022/05/17 11:47:43;;;;;;;3.60;1.40;;;;;;;27.29;29.58;100977.91;3471183;83;98167;-81
2022/05/17 11:52:48;;;;;;;6.28;1.37;;;;;;;26.92;30.21;100985.58;3480545;83;99126;-81
2022/05/17 11:57:54;;;;;;;3.83;1.27;;;;;;;27.09;30.27;100979.70;3443222;85;98764;-81
2022/05/17 12:03:01;;;;;;;3.45;1.17;;;;;;;26.76;30.39;100975.40;3481937;83;99228;-82
2022/05/17 12:08:35;;;;;;;4.30;1.55;;;;;;;27.17;30.86;100972.47;3484820;83;98873;-81
2022/05/17 12:14:15;;;;;;;5.45;1.40;;;;;;;27.28;29.70;100974.14;3479985;82;98965;-80
2022/05/17 12:19:27;;;;;;;5.67;1.20;;;;;;;26.85;29.69;100975.38;3432874;84;99490;-80
2022/05/17 12:25:01;;;;;;;5.08;1.20;;;;;;;26.79;30.46;100971.64;3446634;84;98921;-80
2022/05/17 12:35:50;;;;;;;3.95;1.40;;;;;;;27.19;30.65;100973.55;3426139;85;98968;-80
2022/05/17 12:46:31;;;;;;;7.25;1.70;;;;;;;27.29;29.10;100965.84;3482417;83;98470;-81
2022/05/17 12:51:31;;;;;;;3.45;1.25;;;;;;;27.19;28.68;100963.66;3453949;83;98903;-81
2022/05/17 12:56:39;;;;;;;9.65;1.60;;;;;;;26.57;29.64;100969.65;3407281;84;99239;-80
2022/05/17 13:01:45;;;;;;;3.75;1.20;;;;;;;27.01;30.42;100968.58;3428814;84;99194;-80
2022/05/17 13:06:51;;;;;;;3.87;1.30;;;;;;;27.24;30.34;100969.32;3474024;83;99298;-80
2022/05/17 13:11:56;;;;;;;6.65;1.40;;;;;;;27.52;29.84;100967.27;3473628;83;99174;-79
2022/05/17 13:17:11;;;;;;;4.42;1.47;;;;;;;27.57;29.91;100970.84;3497770;83;26435;-82
2022/05/17 13:22:14;;;;;;;9.53;1.37;;;;;;;27.66;28.88;100974.25;3492714;82;98662;-81
2022/05/17 13:27:29;;;;;;;3.58;1.50;;;;;;;27.19;28.58;100973.55;3466532;83;98638;-82
2022/05/17 13:32:41;;;;;;;5.20;1.72;;;;;;;27.17;29.48;100963.37;3488828;82;98820;-83
2022/05/17 13:38:05;;;;;;;6.50;1.72;;;;;;;27.43;28.80;100967.95;3453646;83;99228;-82
2022/05/17 13:43:31;;;;;;;2.85;1.52;;;;;;;26.97;28.27;100965.92;3470761;83;98987;-82
2022/05/17 13:48:37;;;;;;;2.85;1.50;;;;;;;26.48;27.72;100963.20;3475463;83;98893;-81
2022/05/17 13:53:43;;;;;;;1.87;1.07;;;;;;;26.36;28.89;100966.97;3450817;83;99385;-82
2022/05/17 13:58:46;;;;;;;5.45;1.95;;;;;;;26.12;27.59;100967.45;3482981;83;26083;-81
2022/05/17 14:04:08;;;;;;;5.87;1.27;;;;;;;25.99;29.38;100969.02;3466843;82;99129;-81
2022/05/17 14:14:30;;;;;;;4.62;1.35;;;;;;;26.66;29.47;100972.47;3452302;83;98897;-82
2022/05/17 14:19:33;;;;;;;3.95;1.32;;;;;;;26.69;28.82;100974.33;3441206;84;99375;-82
2022/05/17 14:24:34;;;;;;;8.38;1.70;;;;;;;25.74;29.24;100973.52;3408405;84;99407;-82
2022/05/17 14:29:37;;;;;;;3.10;1.25;;;;;;;25.30;29.89;100982.63;3388747;85;99300;-82
2022/05/17 14:34:41;;;;;;;6.37;1.87;;;;;;;25.25;30.10;100981.82;3381725;85;98728;-82
2022/05/17 14:39:43;;;;;;;3.27;1.35;;;;;;;25.10;30.37;100982.19;3434021;84;97930;-82
2022/05/17 14:44:43;;;;;;;8.58;1.90;;;;;;;24.91;30.38;100980.55;3399801;84;98717;-81
2022/05/17 14:49:50;;;;;;;4.25;1.35;;;;;;;24.78;30.79;100981.23;3439582;84;98937;-80
2022/05/17 14:54:52;;;;;;;5.15;1.37;;;;;;;23.97;30.19;100965.92;3431287;83;98946;-81
2022/05/17 14:59:53;;;;;;;3.10;1.32;;;;;;;23.53;30.22;100992.91;3471464;83;99551;-82
2022/05/17 15:04:54;;;;;;;8.95;1.52;;;;;;;23.39;30.21;100991.99;3472838;83;98594;-82
2022/05/17 15:10:03;;;;;;;6.33;1.30;;;;;;;23.05;30.95;100990.45;3477873;83;99070;-82
2022/05/17 15:15:08;;;;;;;4.15;1.50;;;;;;;22.79;31.37;100985.43;3450786;83;99070;-81
2022/05/17 15:20:12;;;;;;;4.83;1.50;;;;;;;22.57;31.02;100982.28;3468867;83;98794;-82
2022/05/17 15:25:17;;;;;;;3.67;1.20;;;;;;;22.70;31.98;100988.70;3422250;84;99292;-82
2022/05/17 15:30:18;;;;;;;8.25;1.52;;;;;;;22.58;32.20;100988.06;3438538;85;99278;-83
2022/05/17 15:35:27;;;;;;;4.35;1.35;;;;;;;22.36;31.14;100986.46;3462394;83;98807;-81
2022/05/17 15:40:29;;;;;;;5.22;1.20;;;;;;;22.24;32.02;100988.58;3474356;83;31679;-81
2022/05/17 15:45:29;;;;;;;2.70;1.30;;;;;;;22.02;32.21;100987.58;3416108;84;99051;-82
2022/05/17 15:55:57;;;;;;;5.28;1.30;;;;;;;21.45;31.96;100991.64;3447669;84;99040;-82
2022/05/17 16:00:59;;;;;;;4.40;1.20;;;;;;;21.39;32.81;100999.59;3471589;83;99234;-82
2022/05/17 16:06:00;;;;;;;5.45;1.22;;;;;;;21.16;33.06;100993.55;3411689;85;98842;-86
2022/05/17 16:16:21;;;;;;;3.55;1.22;;;;;;;21.07;33.08;100996.75;3470647;83;98557;-82
2022/05/17 16:21:22;;;;;;;5.00;1.10;;;;;;;20.99;32.71;100997.52;3455700;84;99053;-82
2022/05/17 16:26:24;;;;;;;5.35;1.15;;;;;;;20.82;33.43;100990.27;3451246;83;99434;-83
2022/05/17 16:31:26;;;;;;;3.77;1.60;;;;;;;20.71;33.43;100988.94;3472615;83;98910;-82
2022/05/17 16:36:28;;;;;;;7.25;1.42;;;;;;;20.56;34.19;100992.66;3425841;84;99227;-82
2022/05/17 16:41:29;;;;;;;5.53;1.12;;;;;;;20.41;34.22;100991.36;3417397;83;98972;-83
2022/05/17 16:46:32;;;;;;;2.25;0.90;;;;;;;20.31;34.50;100993.75;3460847;84;31711;-83
2022/05/17 16:51:34;;;;;;;5.12;1.30;;;;;;;20.18;34.69;100999.00;3395464;84;98942;-82
2022/05/17 16:56:35;;;;;;;4.30;1.15;;;;;;;20.01;34.50;100998.07;3413941;84;99322;-82
2022/05/17 17:01:37;;;;;;;2.67;1.10;;;;;;;19.89;35.02;100996.53;3453985;84;99328;-82
2022/05/17 17:06:39;;;;;;;3.40;1.17;;;;;;;19.76;35.30;101002.53;3459394;84;99303;-83
2022/05/17 17:11:40;;;;;;;4.12;1.05;;;;;;;19.61;34.75;101004.00;3472917;82;99313;-82
2022/05/17 17:16:41;;;;;;;4.87;1.22;;;;;;;19.45;35.03;101003.23;3492213;83;31666;-82
2022/05/17 17:21:42;;;;;;;5.97;1.20;;;;;;;19.34;36.43;101006.80;3424181;84;99127;-82
2022/05/17 17:26:43;;;;;;;4.92;0.90;;;;;;;19.21;35.93;101003.59;3460103;83;99349;-82
2022/05/17 17:31:45;;;;;;;4.53;1.10;;;;;;;19.11;36.16;101009.52;3469423;82;99283;-83
2022/05/17 17:37:22;;;;;;;2.85;0.90;;;;;;;19.00;34.81;101011.67;3460980;83;98869;-82
2022/05/17 17:41:58;;;;;;;2.83;0.98;;;;;;;18.91;35.25;101030.91;3505473;82;99193;-83
2022/05/17 17:46:59;;;;;;;1.75;0.72;;;;;;;18.83;36.66;101031.42;3425610;85;31722;-83
2022/05/17 17:52:01;;;;;;;2.17;0.80;;;;;;;18.65;35.90;101036.44;3399464;85;99065;-84
2022/05/17 17:57:03;;;;;;;3.25;0.93;;;;;;;18.51;36.80;101035.20;3493200;83;99030;-83
2022/05/17 18:02:04;;;;;;;7.28;1.05;;;;;;;18.31;36.41;101050.33;3484682;83;99192;-82
2022/05/17 18:07:05;;;;;;;6.17;1.32;;;;;;;18.14;35.97;101069.41;3472399;83;98840;-83
2022/05/17 18:12:08;;;;;;;5.95;1.20;;;;;;;17.87;35.42;101076.81;3461118;84;98906;-84
2022/05/17 18:17:09;;;;;;;4.75;1.30;;;;;;;17.62;35.65;101080.99;3495132;83;32286;-83
2022/05/17 18:22:09;;;;;;;8.05;1.50;;;;;;;17.39;35.90;101089.88;3409953;85;98603;-85
2022/05/17 18:27:10;;;;;;;3.00;0.98;;;;;;;17.20;36.05;101094.55;3492599;83;99107;-84
2022/05/17 18:32:23;;;;;;;4.97;1.20;;;;;;;17.02;36.42;101104.98;3513116;83;99162;-83
2022/05/17 18:37:28;;;;;;;3.62;1.50;;;;;;;16.82;36.80;101112.19;3512319;83;99256;-83
2022/05/17 18:42:29;;;;;;;5.33;1.30;;;;;;;16.64;37.26;101127.34;3494373;84;99178;-86
2022/05/17 18:47:36;;;;;;;4.53;1.15;;;;;;;16.45;37.70;101144.46;3479768;83;98600;-87
2022/05/17 18:52:40;;;;;;;4.85;1.30;;;;;;;16.20;37.56;101162.50;3467897;82;98574;-87
2022/05/17 18:57:42;;;;;;;4.90;1.20;;;;;;;15.98;37.32;101167.05;3416003;85;98747;-83
2022/05/17 19:02:45;;;;;;;8.47;1.20;;;;;;;15.80;37.38;101180.89;3459362;83;99049;-84
2022/05/17 19:18:26;;;;;;;2.92;1.00;;;;;;;15.18;37.34;101216.13;3453421;84;99095;-87
2022/05/17 19:23:27;;;;;;;7.90;1.12;;;;;;;15.03;37.53;101225.54;3471803;83;102101;-85
2022/05/17 19:28:28;;;;;;;6.40;1.03;;;;;;;14.86;37.72;101227.04;3487673;84;29854;-85
2022/05/17 19:33:32;;;;;;;7.67;1.40;;;;;;;14.67;37.73;101242.53;3481133;84;99271;-84
2022/05/17 19:43:54;;;;;;;3.15;1.32;;;;;;;14.34;37.93;101255.12;3463126;82;99075;-85
2022/05/17 19:48:55;;;;;;;7.63;1.40;;;;;;;14.17;38.14;101263.25;3504611;83;99181;-86
2022/05/17 19:53:56;;;;;;;6.10;1.27;;;;;;;13.97;38.27;101259.89;3493887;83;99123;-83
2022/05/17 19:58:57;;;;;;;4.20;1.33;;;;;;;13.84;38.37;101268.84;3513914;82;26666;-85
2022/05/17 20:03:58;;;;;;;4.00;1.53;;;;;;;13.71;38.31;101287.66;3495011;83;99374;-84
2022/05/17 20:08:59;;;;;;;4.40;1.40;;;;;;;13.58;38.49;101294.59;3512536;83;99313;-85
2022/05/17 20:14:00;;;;;;;3.50;0.93;;;;;;;13.42;38.77;101299.52;3492698;82;99128;-85
2022/05/17 20:19:02;;;;;;;3.63;1.20;;;;;;;13.27;38.96;101315.72;3502475;83;98900;-86
2022/05/17 20:24:06;;;;;;;9.57;1.60;;;;;;;13.17;39.23;101321.08;3491685;83;99072;-85
2022/05/17 20:29:08;;;;;;;2.67;1.27;;;;;;;13.02;39.33;101328.36;3515071;82;32235;-85
2022/05/17 20:34:09;;;;;;;3.13;1.00;;;;;;;12.89;39.45;101329.72;3487567;82;98740;-85
2022/05/17 20:39:18;;;;;;;2.83;0.90;;;;;;;12.78;39.54;101336.22;3465461;83;98701;-85
2022/05/17 20:44:19;;;;;;;12.13;1.47;;;;;;;12.66;39.76;101356.56;3495071;83;98317;-88
2022/05/17 20:49:20;;;;;;;2.97;1.23;;;;;;;12.51;39.96;101357.47;3408237;85;99479;-88
2022/05/17 20:54:21;;;;;;;3.13;1.03;;;;;;;12.40;40.39;101368.91;3441575;84;99191;-86
2022/05/17 20:59:22;;;;;;;3.47;1.20;;;;;;;12.26;40.46;101374.75;3459264;84;25936;-87
2022/05/17 21:04:24;;;;;;;2.70;0.82;;;;;;;12.15;40.68;101382.80;3466564;83;99005;-87
2022/05/17 21:09:25;;;;;;;1.77;1.17;;;;;;;11.93;40.74;101364.83;3467464;83;98814;-88
2022/05/17 21:14:27;;;;;;;2.00;1.10;;;;;;;11.97;40.94;101389.13;3470700;84;99446;-85
2022/05/17 21:19:34;;;;;;;2.97;1.20;;;;;;;11.85;41.22;101390.64;3461408;83;98864;-86
2022/05/17 21:24:35;;;;;;;6.65;1.32;;;;;;;11.75;41.47;101402.25;3470427;83;98870;-87
2022/05/17 21:29:38;;;;;;;4.07;1.37;;;;;;;11.63;41.63;101405.95;3483748;84;98883;-88
2022/05/17 21:34:41;;;;;;;6.47;1.10;;;;;;;11.51;41.92;101416.27;3412575;84;98917;-87
2022/05/17 21:39:46;;;;;;;3.25;1.20;;;;;;;11.41;42.11;101428.64;3499791;83;99408;-87
2022/05/17 21:44:48;;;;;;;3.23;0.97;;;;;;;11.33;42.34;101442.62;3443287;84;99036;-87
2022/05/17 21:49:49;;;;;;;4.67;1.20;;;;;;;11.21;42.49;101439.38;3479597;83;98921;-86
2022/05/17 21:54:50;;;;;;;2.73;0.80;;;;;;;11.11;42.71;101440.47;3465137;84;98820;-87
2022/05/17 21:59:53;;;;;;;4.33;1.03;;;;;;;10.97;42.74;101450.55;3473556;84;98848;-87
2022/05/17 22:04:54;;;;;;;3.60;0.88;;;;;;;10.85;43.07;101457.52;3471100;84;98863;-87
2022/05/17 22:09:54;;;;;;;4.83;1.20;;;;;;;10.74;43.24;101456.44;3485105;83;98860;-88
2022/05/17 22:14:58;;;;;;;2.83;0.90;;;;;;;10.66;43.68;101460.17;3486169;83;98790;-88
2022/05/17 22:19:59;;;;;;;5.85;1.37;;;;;;;10.39;44.17;101464.31;3471282;82;98966;-88
2022/05/17 22:25:00;;;;;;;5.37;1.40;;;;;;;10.39;44.17;101464.31;3482549;83;99227;-87
2022/05/17 22:30:01;;;;;;;5.65;1.22;;;;;;;10.29;44.70;101476.63;3483471;83;98887;-87
2022/05/17 22:35:07;;;;;;;5.85;1.40;;;;;;;10.17;45.46;101484.92;3449224;84;98562;-86
2022/05/17 22:40:09;;;;;;;5.22;1.65;;;;;;;10.04;45.59;101498.46;3458088;83;98759;-87
2022/05/17 22:50:30;;;;;;;3.77;0.90;;;;;;;9.79;46.01;101511.20;3487257;83;98555;-87
2022/05/17 22:55:31;;;;;;;2.97;1.20;;;;;;;9.62;46.31;101514.19;3486892;83;98559;-86
2022/05/17 23:00:32;;;;;;;5.50;1.53;;;;;;;9.57;46.66;101527.60;3471695;83;98924;-88
2022/05/17 23:05:34;;;;;;;3.97;1.10;;;;;;;9.44;46.82;101525.97;3488815;83;98720;-86
2022/05/17 23:10:36;;;;;;;6.43;1.13;;;;;;;9.32;47.13;101536.95;3414828;86;25850;-87
2022/05/17 23:15:37;;;;;;;3.45;1.35;;;;;;;9.21;47.44;101533.64;3503792;82;98533;-87
2022/05/17 23:20:38;;;;;;;5.13;1.10;;;;;;;9.10;48.30;101536.59;3432765;85;98830;-85
2022/05/17 23:31:11;;;;;;;2.87;1.00;;;;;;;8.89;48.54;101547.62;3499633;82;98462;-87
2022/05/17 23:36:13;;;;;;;2.57;1.00;;;;;;;8.79;48.79;101556.27;3513173;83;98517;-86
2022/05/17 23:41:20;;;;;;;1.90;0.98;;;;;;;8.69;49.21;101558.64;3498617;83;98618;-87
2022/05/17 23:46:21;;;;;;;3.08;1.00;;;;;;;8.60;49.38;101557.91;3492789;82;97404;-87
2022/05/17 23:51:22;;;;;;;2.37;0.90;;;;;;;8.49;50.03;101564.38;3501139;83;98508;-87
2022/05/17 23:56:22;;;;;;;4.03;1.13;;;;;;;8.40;49.99;101570.50;3477086;83;98870;-87
